sensor_id;sensor_type;location;lat;lon;timestamp;P1;durP1;ratioP1;P2;durP2;ratioP2
35693;SDS011;21812;55.536;37.664;2023-05-16T00:00:06;17.63;;;8.45;;
35693;SDS011;21812;55.536;37.664;2023-05-16T00:02:34;14.52;;;7.18;;
35693;SDS011;21812;55.536;37.664;2023-05-16T00:05:04;19.38;;;7.70;;
35693;SDS011;21812;55.536;37.664;2023-05-16T00:07:32;14.80;;;7.80;;
35693;SDS011;21812;55.536;37.664;2023-05-16T00:09:59;17.50;;;7.20;;
35693;SDS011;21812;55.536;37.664;2023-05-16T00:12:25;15.05;;;6.97;;
35693;SDS011;21812;55.536;37.664;2023-05-16T00:14:52;15.73;;;7.30;;
35693;SDS011;21812;55.536;37.664;2023-05-16T00:17:18;11.95;;;6.82;;
35693;SDS011;21812;55.536;37.664;2023-05-16T00:19:45;11.45;;;7.30;;
35693;SDS011;21812;55.536;37.664;2023-05-16T00:22:18;16.33;;;9.07;;
35693;SDS011;21812;55.536;37.664;2023-05-16T00:24:44;13.85;;;7.63;;
35693;SDS011;21812;55.536;37.664;2023-05-16T00:27:10;13.65;;;7.20;;
35693;SDS011;21812;55.536;37.664;2023-05-16T00:29:36;15.68;;;8.70;;
35693;SDS011;21812;55.536;37.664;2023-05-16T00:32:02;15.02;;;8.00;;
35693;SDS011;21812;55.536;37.664;2023-05-16T00:34:27;17.17;;;7.07;;
35693;SDS011;21812;55.536;37.664;2023-05-16T00:36:53;17.45;;;8.73;;
35693;SDS011;21812;55.536;37.664;2023-05-16T00:39:19;15.38;;;7.93;;
35693;SDS011;21812;55.536;37.664;2023-05-16T00:41:45;15.10;;;7.35;;
35693;SDS011;21812;55.536;37.664;2023-05-16T00:44:11;16.33;;;8.52;;
35693;SDS011;21812;55.536;37.664;2023-05-16T00:46:36;18.25;;;8.43;;
35693;SDS011;21812;55.536;37.664;2023-05-16T00:49:02;16.23;;;8.68;;
35693;SDS011;21812;55.536;37.664;2023-05-16T00:51:29;10.57;;;5.53;;
35693;SDS011;21812;55.536;37.664;2023-05-16T00:53:55;12.15;;;6.18;;
35693;SDS011;21812;55.536;37.664;2023-05-16T00:56:21;12.07;;;5.78;;
35693;SDS011;21812;55.536;37.664;2023-05-16T00:58:47;14.55;;;7.13;;
35693;SDS011;21812;55.536;37.664;2023-05-16T01:01:14;14.45;;;6.53;;
35693;SDS011;21812;55.536;37.664;2023-05-16T01:03:41;11.93;;;7.03;;
35693;SDS011;21812;55.536;37.664;2023-05-16T01:06:11;10.70;;;5.28;;
35693;SDS011;21812;55.536;37.664;2023-05-16T01:08:37;9.07;;;5.10;;
35693;SDS011;21812;55.536;37.664;2023-05-16T01:13:42;14.45;;;6.75;;
35693;SDS011;21812;55.536;37.664;2023-05-16T01:16:34;15.02;;;6.95;;
35693;SDS011;21812;55.536;37.664;2023-05-16T01:21:52;14.10;;;8.30;;
35693;SDS011;21812;55.536;37.664;2023-05-16T01:24:34;19.27;;;8.98;;
35693;SDS011;21812;55.536;37.664;2023-05-16T01:27:06;17.30;;;7.63;;
35693;SDS011;21812;55.536;37.664;2023-05-16T01:29:33;18.45;;;8.23;;
35693;SDS011;21812;55.536;37.664;2023-05-16T01:31:59;20.83;;;9.63;;
35693;SDS011;21812;55.536;37.664;2023-05-16T01:34:25;22.65;;;9.00;;
35693;SDS011;21812;55.536;37.664;2023-05-16T01:37:05;16.38;;;9.40;;
35693;SDS011;21812;55.536;37.664;2023-05-16T01:39:43;24.08;;;10.13;;
35693;SDS011;21812;55.536;37.664;2023-05-16T01:42:15;15.57;;;8.70;;
35693;SDS011;21812;55.536;37.664;2023-05-16T01:45:03;20.65;;;9.95;;
35693;SDS011;21812;55.536;37.664;2023-05-16T01:47:36;29.05;;;11.35;;
35693;SDS011;21812;55.536;37.664;2023-05-16T01:52:41;24.52;;;9.95;;
35693;SDS011;21812;55.536;37.664;2023-05-16T01:55:15;27.35;;;12.05;;
35693;SDS011;21812;55.536;37.664;2023-05-16T01:57:45;26.70;;;11.05;;
35693;SDS011;21812;55.536;37.664;2023-05-16T02:00:13;21.48;;;8.88;;
35693;SDS011;21812;55.536;37.664;2023-05-16T02:02:42;17.23;;;8.77;;
35693;SDS011;21812;55.536;37.664;2023-05-16T02:05:08;23.83;;;9.48;;
35693;SDS011;21812;55.536;37.664;2023-05-16T02:07:35;29.38;;;11.55;;
35693;SDS011;21812;55.536;37.664;2023-05-16T02:10:01;26.83;;;11.23;;
35693;SDS011;21812;55.536;37.664;2023-05-16T02:12:28;18.83;;;9.65;;
35693;SDS011;21812;55.536;37.664;2023-05-16T02:14:53;23.95;;;10.02;;
35693;SDS011;21812;55.536;37.664;2023-05-16T02:17:19;25.80;;;11.43;;
35693;SDS011;21812;55.536;37.664;2023-05-16T02:19:45;26.65;;;11.07;;
35693;SDS011;21812;55.536;37.664;2023-05-16T02:22:11;23.20;;;11.35;;
35693;SDS011;21812;55.536;37.664;2023-05-16T02:24:37;28.98;;;12.82;;
35693;SDS011;21812;55.536;37.664;2023-05-16T02:27:03;23.13;;;9.35;;
35693;SDS011;21812;55.536;37.664;2023-05-16T02:29:28;27.83;;;12.00;;
35693;SDS011;21812;55.536;37.664;2023-05-16T02:31:55;21.33;;;10.90;;
35693;SDS011;21812;55.536;37.664;2023-05-16T02:34:20;21.58;;;10.00;;
35693;SDS011;21812;55.536;37.664;2023-05-16T02:36:46;16.15;;;8.57;;
35693;SDS011;21812;55.536;37.664;2023-05-16T02:39:12;29.27;;;10.98;;
35693;SDS011;21812;55.536;37.664;2023-05-16T02:41:38;23.60;;;10.45;;
35693;SDS011;21812;55.536;37.664;2023-05-16T02:44:04;26.02;;;10.73;;
35693;SDS011;21812;55.536;37.664;2023-05-16T02:46:31;26.40;;;10.15;;
35693;SDS011;21812;55.536;37.664;2023-05-16T02:48:58;16.25;;;8.90;;
35693;SDS011;21812;55.536;37.664;2023-05-16T02:51:26;36.78;;;11.30;;
35693;SDS011;21812;55.536;37.664;2023-05-16T02:53:53;29.48;;;11.43;;
35693;SDS011;21812;55.536;37.664;2023-05-16T02:56:21;20.45;;;9.20;;
35693;SDS011;21812;55.536;37.664;2023-05-16T02:58:47;25.55;;;10.90;;
35693;SDS011;21812;55.536;37.664;2023-05-16T03:01:15;20.33;;;10.10;;
35693;SDS011;21812;55.536;37.664;2023-05-16T03:03:41;30.83;;;11.55;;
35693;SDS011;21812;55.536;37.664;2023-05-16T03:06:07;24.48;;;10.35;;
35693;SDS011;21812;55.536;37.664;2023-05-16T03:08:33;21.42;;;10.48;;
35693;SDS011;21812;55.536;37.664;2023-05-16T03:11:00;23.15;;;9.82;;
35693;SDS011;21812;55.536;37.664;2023-05-16T03:13:26;26.05;;;8.27;;
35693;SDS011;21812;55.536;37.664;2023-05-16T03:15:52;21.30;;;9.20;;
35693;SDS011;21812;55.536;37.664;2023-05-16T03:18:18;18.13;;;8.07;;
35693;SDS011;21812;55.536;37.664;2023-05-16T03:20:44;19.45;;;8.38;;
35693;SDS011;21812;55.536;37.664;2023-05-16T03:23:10;13.18;;;7.20;;
35693;SDS011;21812;55.536;37.664;2023-05-16T03:25:36;14.05;;;7.47;;
35693;SDS011;21812;55.536;37.664;2023-05-16T03:28:04;19.35;;;6.80;;
35693;SDS011;21812;55.536;37.664;2023-05-16T03:30:32;23.90;;;11.40;;
35693;SDS011;21812;55.536;37.664;2023-05-16T03:32:59;22.20;;;9.63;;
35693;SDS011;21812;55.536;37.664;2023-05-16T03:35:25;22.27;;;8.00;;
35693;SDS011;21812;55.536;37.664;2023-05-16T03:37:52;27.13;;;8.48;;
35693;SDS011;21812;55.536;37.664;2023-05-16T03:40:19;49.80;;;13.80;;
35693;SDS011;21812;55.536;37.664;2023-05-16T03:42:45;56.72;;;26.88;;
35693;SDS011;21812;55.536;37.664;2023-05-16T03:45:11;36.53;;;16.85;;
35693;SDS011;21812;55.536;37.664;2023-05-16T03:47:37;32.25;;;13.15;;
35693;SDS011;21812;55.536;37.664;2023-05-16T03:50:03;19.65;;;9.25;;
35693;SDS011;21812;55.536;37.664;2023-05-16T03:52:30;18.23;;;9.00;;
35693;SDS011;21812;55.536;37.664;2023-05-16T03:54:56;16.13;;;7.80;;
35693;SDS011;21812;55.536;37.664;2023-05-16T03:57:21;16.88;;;5.80;;
35693;SDS011;21812;55.536;37.664;2023-05-16T03:59:47;12.52;;;5.80;;
35693;SDS011;21812;55.536;37.664;2023-05-16T04:02:13;14.65;;;5.50;;
35693;SDS011;21812;55.536;37.664;2023-05-16T04:04:39;16.73;;;5.80;;
35693;SDS011;21812;55.536;37.664;2023-05-16T04:07:05;37.85;;;6.55;;
35693;SDS011;21812;55.536;37.664;2023-05-16T04:09:30;12.93;;;5.47;;
35693;SDS011;21812;55.536;37.664;2023-05-16T04:11:57;10.55;;;4.97;;
35693;SDS011;21812;55.536;37.664;2023-05-16T04:14:26;18.60;;;6.28;;
35693;SDS011;21812;55.536;37.664;2023-05-16T04:16:52;15.55;;;5.20;;
35693;SDS011;21812;55.536;37.664;2023-05-16T04:19:17;11.18;;;5.45;;
35693;SDS011;21812;55.536;37.664;2023-05-16T04:21:43;17.35;;;5.78;;
35693;SDS011;21812;55.536;37.664;2023-05-16T04:24:09;15.10;;;6.07;;
35693;SDS011;21812;55.536;37.664;2023-05-16T04:26:35;13.02;;;5.32;;
35693;SDS011;21812;55.536;37.664;2023-05-16T04:29:02;13.20;;;4.72;;
35693;SDS011;21812;55.536;37.664;2023-05-16T04:31:28;12.32;;;5.50;;
35693;SDS011;21812;55.536;37.664;2023-05-16T04:33:54;17.30;;;4.90;;
35693;SDS011;21812;55.536;37.664;2023-05-16T04:36:20;13.88;;;3.85;;
35693;SDS011;21812;55.536;37.664;2023-05-16T04:38:46;10.40;;;4.18;;
35693;SDS011;21812;55.536;37.664;2023-05-16T04:41:12;13.23;;;4.63;;
35693;SDS011;21812;55.536;37.664;2023-05-16T04:43:38;9.63;;;3.83;;
35693;SDS011;21812;55.536;37.664;2023-05-16T04:46:05;10.85;;;3.83;;
35693;SDS011;21812;55.536;37.664;2023-05-16T04:48:34;6.45;;;2.88;;
35693;SDS011;21812;55.536;37.664;2023-05-16T04:51:00;9.43;;;3.60;;
35693;SDS011;21812;55.536;37.664;2023-05-16T04:53:26;10.15;;;3.13;;
35693;SDS011;21812;55.536;37.664;2023-05-16T04:55:52;6.35;;;2.90;;
35693;SDS011;21812;55.536;37.664;2023-05-16T04:58:18;6.40;;;3.05;;
35693;SDS011;21812;55.536;37.664;2023-05-16T05:00:43;9.07;;;3.65;;
35693;SDS011;21812;55.536;37.664;2023-05-16T05:03:09;10.10;;;3.45;;
35693;SDS011;21812;55.536;37.664;2023-05-16T05:05:35;21.10;;;4.57;;
35693;SDS011;21812;55.536;37.664;2023-05-16T05:08:00;14.13;;;3.55;;
35693;SDS011;21812;55.536;37.664;2023-05-16T05:10:26;12.15;;;3.92;;
35693;SDS011;21812;55.536;37.664;2023-05-16T05:12:52;10.80;;;3.85;;
35693;SDS011;21812;55.536;37.664;2023-05-16T05:15:18;10.77;;;3.17;;
35693;SDS011;21812;55.536;37.664;2023-05-16T05:17:44;10.27;;;3.17;;
35693;SDS011;21812;55.536;37.664;2023-05-16T05:20:10;10.50;;;2.88;;
35693;SDS011;21812;55.536;37.664;2023-05-16T05:22:36;9.60;;;3.13;;
35693;SDS011;21812;55.536;37.664;2023-05-16T05:25:02;13.07;;;3.22;;
35693;SDS011;21812;55.536;37.664;2023-05-16T05:27:30;8.40;;;2.40;;
35693;SDS011;21812;55.536;37.664;2023-05-16T05:29:56;7.20;;;2.80;;
35693;SDS011;21812;55.536;37.664;2023-05-16T05:32:21;11.60;;;1.80;;
35693;SDS011;21812;55.536;37.664;2023-05-16T05:34:47;8.20;;;1.65;;
35693;SDS011;21812;55.536;37.664;2023-05-16T05:37:13;7.38;;;1.67;;
35693;SDS011;21812;55.536;37.664;2023-05-16T05:39:39;6.50;;;1.80;;
35693;SDS011;21812;55.536;37.664;2023-05-16T05:42:05;4.72;;;1.20;;
35693;SDS011;21812;55.536;37.664;2023-05-16T05:44:31;2.67;;;0.98;;
35693;SDS011;21812;55.536;37.664;2023-05-16T05:46:58;3.40;;;1.30;;
35693;SDS011;21812;55.536;37.664;2023-05-16T05:49:24;1.67;;;1.23;;
35693;SDS011;21812;55.536;37.664;2023-05-16T05:51:52;9.75;;;1.92;;
35693;SDS011;21812;55.536;37.664;2023-05-16T05:54:18;5.68;;;1.35;;
35693;SDS011;21812;55.536;37.664;2023-05-16T05:56:44;9.15;;;1.40;;
35693;SDS011;21812;55.536;37.664;2023-05-16T05:59:10;4.57;;;1.25;;
35693;SDS011;21812;55.536;37.664;2023-05-16T06:01:36;3.58;;;1.27;;
35693;SDS011;21812;55.536;37.664;2023-05-16T06:04:02;16.83;;;3.05;;
35693;SDS011;21812;55.536;37.664;2023-05-16T06:06:28;8.05;;;1.85;;
35693;SDS011;21812;55.536;37.664;2023-05-16T06:08:54;4.25;;;1.55;;
35693;SDS011;21812;55.536;37.664;2023-05-16T06:11:20;6.13;;;1.30;;
35693;SDS011;21812;55.536;37.664;2023-05-16T06:13:46;9.10;;;1.90;;
35693;SDS011;21812;55.536;37.664;2023-05-16T06:16:12;1.83;;;1.10;;
35693;SDS011;21812;55.536;37.664;2023-05-16T06:18:38;3.55;;;1.30;;
35693;SDS011;21812;55.536;37.664;2023-05-16T06:21:04;2.50;;;0.73;;
35693;SDS011;21812;55.536;37.664;2023-05-16T06:23:31;1.73;;;1.00;;
35693;SDS011;21812;55.536;37.664;2023-05-16T06:25:57;15.15;;;2.05;;
35693;SDS011;21812;55.536;37.664;2023-05-16T06:28:22;5.93;;;1.13;;
35693;SDS011;21812;55.536;37.664;2023-05-16T06:30:48;5.78;;;1.92;;
35693;SDS011;21812;55.536;37.664;2023-05-16T06:33:16;5.03;;;1.20;;
35693;SDS011;21812;55.536;37.664;2023-05-16T06:35:42;2.85;;;1.08;;
35693;SDS011;21812;55.536;37.664;2023-05-16T06:38:08;2.88;;;1.15;;
35693;SDS011;21812;55.536;37.664;2023-05-16T06:40:34;3.13;;;1.30;;
35693;SDS011;21812;55.536;37.664;2023-05-16T06:42:59;11.65;;;2.55;;
35693;SDS011;21812;55.536;37.664;2023-05-16T06:45:25;11.00;;;2.72;;
35693;SDS011;21812;55.536;37.664;2023-05-16T06:47:51;5.60;;;1.88;;
35693;SDS011;21812;55.536;37.664;2023-05-16T06:50:16;3.25;;;0.80;;
35693;SDS011;21812;55.536;37.664;2023-05-16T06:52:42;5.15;;;0.95;;
35693;SDS011;21812;55.536;37.664;2023-05-16T06:55:08;6.90;;;1.50;;
35693;SDS011;21812;55.536;37.664;2023-05-16T06:57:34;2.00;;;0.93;;
35693;SDS011;21812;55.536;37.664;2023-05-16T07:00:00;5.57;;;0.70;;
35693;SDS011;21812;55.536;37.664;2023-05-16T07:02:26;15.75;;;1.70;;
35693;SDS011;21812;55.536;37.664;2023-05-16T07:04:52;1.45;;;0.55;;
35693;SDS011;21812;55.536;37.664;2023-05-16T07:07:18;7.57;;;1.73;;
35693;SDS011;21812;55.536;37.664;2023-05-16T07:09:43;2.70;;;0.65;;
35693;SDS011;21812;55.536;37.664;2023-05-16T07:12:09;1.00;;;0.73;;
35693;SDS011;21812;55.536;37.664;2023-05-16T07:14:35;3.45;;;0.85;;
35693;SDS011;21812;55.536;37.664;2023-05-16T07:17:01;1.35;;;0.88;;
35693;SDS011;21812;55.536;37.664;2023-05-16T07:19:27;2.30;;;0.70;;
35693;SDS011;21812;55.536;37.664;2023-05-16T07:21:53;4.28;;;0.93;;
35693;SDS011;21812;55.536;37.664;2023-05-16T07:24:19;12.05;;;1.13;;
35693;SDS011;21812;55.536;37.664;2023-05-16T07:26:44;3.55;;;0.75;;
35693;SDS011;21812;55.536;37.664;2023-05-16T07:29:10;1.58;;;0.68;;
35693;SDS011;21812;55.536;37.664;2023-05-16T07:31:36;4.45;;;1.13;;
35693;SDS011;21812;55.536;37.664;2023-05-16T07:34:01;4.97;;;1.48;;
35693;SDS011;21812;55.536;37.664;2023-05-16T07:36:27;1.17;;;0.70;;
35693;SDS011;21812;55.536;37.664;2023-05-16T07:38:53;0.77;;;0.40;;
35693;SDS011;21812;55.536;37.664;2023-05-16T07:41:19;3.70;;;0.90;;
35693;SDS011;21812;55.536;37.664;2023-05-16T07:43:45;12.50;;;1.48;;
35693;SDS011;21812;55.536;37.664;2023-05-16T07:46:11;3.80;;;0.70;;
35693;SDS011;21812;55.536;37.664;2023-05-16T07:48:38;2.97;;;0.98;;
35693;SDS011;21812;55.536;37.664;2023-05-16T07:51:04;2.13;;;0.73;;
35693;SDS011;21812;55.536;37.664;2023-05-16T07:53:30;2.60;;;0.80;;
35693;SDS011;21812;55.536;37.664;2023-05-16T07:55:55;2.28;;;0.73;;
35693;SDS011;21812;55.536;37.664;2023-05-16T07:58:21;1.55;;;0.60;;
35693;SDS011;21812;55.536;37.664;2023-05-16T08:00:47;2.38;;;0.60;;
35693;SDS011;21812;55.536;37.664;2023-05-16T08:03:13;3.15;;;0.75;;
35693;SDS011;21812;55.536;37.664;2023-05-16T08:05:39;0.77;;;0.43;;
35693;SDS011;21812;55.536;37.664;2023-05-16T08:08:04;3.85;;;0.80;;
35693;SDS011;21812;55.536;37.664;2023-05-16T08:10:30;3.97;;;0.82;;
35693;SDS011;21812;55.536;37.664;2023-05-16T08:12:56;0.82;;;0.45;;
35693;SDS011;21812;55.536;37.664;2023-05-16T08:15:22;2.10;;;0.68;;
35693;SDS011;21812;55.536;37.664;2023-05-16T08:17:47;1.98;;;0.88;;
35693;SDS011;21812;55.536;37.664;2023-05-16T08:20:13;2.17;;;1.10;;
35693;SDS011;21812;55.536;37.664;2023-05-16T08:22:39;3.40;;;0.95;;
35693;SDS011;21812;55.536;37.664;2023-05-16T08:25:05;1.10;;;0.55;;
35693;SDS011;21812;55.536;37.664;2023-05-16T08:27:31;11.35;;;2.25;;
35693;SDS011;21812;55.536;37.664;2023-05-16T08:29:57;1.67;;;0.50;;
35693;SDS011;21812;55.536;37.664;2023-05-16T08:32:22;8.52;;;1.80;;
35693;SDS011;21812;55.536;37.664;2023-05-16T08:34:48;7.65;;;0.95;;
35693;SDS011;21812;55.536;37.664;2023-05-16T08:37:14;2.95;;;0.70;;
35693;SDS011;21812;55.536;37.664;2023-05-16T08:39:40;3.63;;;0.60;;
35693;SDS011;21812;55.536;37.664;2023-05-16T08:42:05;2.55;;;0.60;;
35693;SDS011;21812;55.536;37.664;2023-05-16T08:44:32;4.00;;;0.70;;
35693;SDS011;21812;55.536;37.664;2023-05-16T08:46:59;31.30;;;2.85;;
35693;SDS011;21812;55.536;37.664;2023-05-16T08:49:31;3.97;;;0.73;;
35693;SDS011;21812;55.536;37.664;2023-05-16T08:51:59;2.05;;;0.45;;
35693;SDS011;21812;55.536;37.664;2023-05-16T08:54:27;1.95;;;0.63;;
35693;SDS011;21812;55.536;37.664;2023-05-16T08:56:54;3.03;;;0.50;;
35693;SDS011;21812;55.536;37.664;2023-05-16T08:59:22;0.60;;;0.35;;
35693;SDS011;21812;55.536;37.664;2023-05-16T09:01:48;2.33;;;0.60;;
35693;SDS011;21812;55.536;37.664;2023-05-16T09:04:14;5.15;;;0.50;;
35693;SDS011;21812;55.536;37.664;2023-05-16T09:06:40;0.80;;;0.70;;
35693;SDS011;21812;55.536;37.664;2023-05-16T09:09:06;4.63;;;0.40;;
35693;SDS011;21812;55.536;37.664;2023-05-16T09:11:34;2.50;;;0.40;;
35693;SDS011;21812;55.536;37.664;2023-05-16T09:14:00;3.33;;;0.70;;
35693;SDS011;21812;55.536;37.664;2023-05-16T09:16:26;2.75;;;0.98;;
35693;SDS011;21812;55.536;37.664;2023-05-16T09:18:55;1.88;;;0.90;;
35693;SDS011;21812;55.536;37.664;2023-05-16T09:21:41;3.13;;;0.75;;
35693;SDS011;21812;55.536;37.664;2023-05-16T09:24:07;1.00;;;0.45;;
35693;SDS011;21812;55.536;37.664;2023-05-16T09:26:35;2.30;;;0.50;;
35693;SDS011;21812;55.536;37.664;2023-05-16T09:29:11;2.95;;;0.68;;
35693;SDS011;21812;55.536;37.664;2023-05-16T09:31:37;6.45;;;1.30;;
35693;SDS011;21812;55.536;37.664;2023-05-16T09:34:06;2.83;;;0.57;;
35693;SDS011;21812;55.536;37.664;2023-05-16T09:36:33;2.65;;;0.75;;
35693;SDS011;21812;55.536;37.664;2023-05-16T09:38:59;1.85;;;0.57;;
35693;SDS011;21812;55.536;37.664;2023-05-16T09:41:25;7.35;;;1.10;;
35693;SDS011;21812;55.536;37.664;2023-05-16T09:43:51;2.40;;;0.60;;
35693;SDS011;21812;55.536;37.664;2023-05-16T09:46:17;1.15;;;0.52;;
35693;SDS011;21812;55.536;37.664;2023-05-16T09:48:44;4.10;;;0.63;;
35693;SDS011;21812;55.536;37.664;2023-05-16T09:51:11;3.42;;;0.40;;
35693;SDS011;21812;55.536;37.664;2023-05-16T09:53:38;13.55;;;0.73;;
35693;SDS011;21812;55.536;37.664;2023-05-16T09:56:05;3.70;;;0.95;;
35693;SDS011;21812;55.536;37.664;2023-05-16T09:58:33;10.98;;;0.93;;
35693;SDS011;21812;55.536;37.664;2023-05-16T10:01:00;6.63;;;0.80;;
35693;SDS011;21812;55.536;37.664;2023-05-16T10:03:27;7.30;;;0.88;;
35693;SDS011;21812;55.536;37.664;2023-05-16T10:05:53;2.15;;;0.68;;
35693;SDS011;21812;55.536;37.664;2023-05-16T10:08:23;3.65;;;0.80;;
35693;SDS011;21812;55.536;37.664;2023-05-16T10:10:50;4.32;;;0.63;;
35693;SDS011;21812;55.536;37.664;2023-05-16T10:13:22;0.68;;;0.40;;
35693;SDS011;21812;55.536;37.664;2023-05-16T10:15:55;8.73;;;1.20;;
35693;SDS011;21812;55.536;37.664;2023-05-16T10:18:22;2.33;;;0.82;;
35693;SDS011;21812;55.536;37.664;2023-05-16T10:20:53;2.33;;;0.57;;
35693;SDS011;21812;55.536;37.664;2023-05-16T10:23:21;7.20;;;1.02;;
35693;SDS011;21812;55.536;37.664;2023-05-16T10:25:50;5.25;;;0.73;;
35693;SDS011;21812;55.536;37.664;2023-05-16T10:28:17;5.72;;;0.47;;
35693;SDS011;21812;55.536;37.664;2023-05-16T10:30:43;5.38;;;0.60;;
35693;SDS011;21812;55.536;37.664;2023-05-16T10:33:14;7.00;;;0.98;;
35693;SDS011;21812;55.536;37.664;2023-05-16T10:35:42;9.82;;;2.60;;
35693;SDS011;21812;55.536;37.664;2023-05-16T10:38:09;1.98;;;0.70;;
35693;SDS011;21812;55.536;37.664;2023-05-16T10:40:37;5.13;;;0.57;;
35693;SDS011;21812;55.536;37.664;2023-05-16T10:43:04;1.88;;;0.60;;
35693;SDS011;21812;55.536;37.664;2023-05-16T10:45:38;6.45;;;1.30;;
35693;SDS011;21812;55.536;37.664;2023-05-16T10:48:06;3.42;;;0.55;;
35693;SDS011;21812;55.536;37.664;2023-05-16T10:53:22;5.35;;;1.80;;
35693;SDS011;21812;55.536;37.664;2023-05-16T11:01:05;2.65;;;0.80;;
35693;SDS011;21812;55.536;37.664;2023-05-16T11:06:21;1.52;;;0.70;;
35693;SDS011;21812;55.536;37.664;2023-05-16T11:14:06;1.73;;;0.50;;
35693;SDS011;21812;55.536;37.664;2023-05-16T11:16:33;3.25;;;0.50;;
35693;SDS011;21812;55.536;37.664;2023-05-16T11:19:03;6.10;;;0.80;;
35693;SDS011;21812;55.536;37.664;2023-05-16T11:24:35;4.40;;;0.98;;
35693;SDS011;21812;55.536;37.664;2023-05-16T11:27:03;1.10;;;0.52;;
35693;SDS011;21812;55.536;37.664;2023-05-16T11:29:30;1.52;;;0.50;;
35693;SDS011;21812;55.536;37.664;2023-05-16T11:31:59;2.75;;;0.60;;
35693;SDS011;21812;55.536;37.664;2023-05-16T11:34:25;7.93;;;1.13;;
35693;SDS011;21812;55.536;37.664;2023-05-16T11:36:51;3.05;;;1.75;;
35693;SDS011;21812;55.536;37.664;2023-05-16T11:39:17;5.10;;;0.70;;
35693;SDS011;21812;55.536;37.664;2023-05-16T11:41:45;7.65;;;1.52;;
35693;SDS011;21812;55.536;37.664;2023-05-16T11:44:11;12.18;;;1.00;;
35693;SDS011;21812;55.536;37.664;2023-05-16T11:46:40;1.23;;;0.63;;
35693;SDS011;21812;55.536;37.664;2023-05-16T11:49:06;1.42;;;0.50;;
35693;SDS011;21812;55.536;37.664;2023-05-16T11:51:36;2.28;;;0.40;;
35693;SDS011;21812;55.536;37.664;2023-05-16T11:54:03;7.35;;;0.68;;
35693;SDS011;21812;55.536;37.664;2023-05-16T11:56:32;1.95;;;0.75;;
35693;SDS011;21812;55.536;37.664;2023-05-16T11:59:00;13.77;;;2.90;;
35693;SDS011;21812;55.536;37.664;2023-05-16T12:01:31;2.55;;;0.77;;
35693;SDS011;21812;55.536;37.664;2023-05-16T12:03:58;1.17;;;0.60;;
35693;SDS011;21812;55.536;37.664;2023-05-16T12:06:24;3.13;;;0.40;;
35693;SDS011;21812;55.536;37.664;2023-05-16T12:08:51;1.23;;;0.38;;
35693;SDS011;21812;55.536;37.664;2023-05-16T12:11:17;1.63;;;0.50;;
35693;SDS011;21812;55.536;37.664;2023-05-16T12:13:42;0.70;;;0.30;;
35693;SDS011;21812;55.536;37.664;2023-05-16T12:16:10;6.90;;;1.10;;
35693;SDS011;21812;55.536;37.664;2023-05-16T12:18:36;2.00;;;0.80;;
35693;SDS011;21812;55.536;37.664;2023-05-16T12:21:05;2.50;;;0.77;;
35693;SDS011;21812;55.536;37.664;2023-05-16T12:23:34;2.70;;;0.40;;
35693;SDS011;21812;55.536;37.664;2023-05-16T12:26:01;4.82;;;0.52;;
35693;SDS011;21812;55.536;37.664;2023-05-16T12:28:31;4.10;;;1.38;;
35693;SDS011;21812;55.536;37.664;2023-05-16T12:30:58;0.65;;;0.35;;
35693;SDS011;21812;55.536;37.664;2023-05-16T12:33:24;1.27;;;0.50;;
35693;SDS011;21812;55.536;37.664;2023-05-16T12:35:51;0.40;;;0.35;;
35693;SDS011;21812;55.536;37.664;2023-05-16T12:38:19;7.20;;;1.13;;
35693;SDS011;21812;55.536;37.664;2023-05-16T12:40:45;5.28;;;0.60;;
35693;SDS011;21812;55.536;37.664;2023-05-16T12:43:15;0.82;;;0.65;;
35693;SDS011;21812;55.536;37.664;2023-05-16T12:45:49;0.32;;;0.20;;
35693;SDS011;21812;55.536;37.664;2023-05-16T12:48:22;33.78;;;4.72;;
35693;SDS011;21812;55.536;37.664;2023-05-16T12:50:54;1.40;;;0.40;;
35693;SDS011;21812;55.536;37.664;2023-05-16T12:53:19;2.92;;;0.93;;
35693;SDS011;21812;55.536;37.664;2023-05-16T12:55:46;5.93;;;1.25;;
35693;SDS011;21812;55.536;37.664;2023-05-16T12:58:12;2.80;;;0.68;;
35693;SDS011;21812;55.536;37.664;2023-05-16T13:00:38;8.98;;;1.38;;
35693;SDS011;21812;55.536;37.664;2023-05-16T13:03:04;1.70;;;0.50;;
35693;SDS011;21812;55.536;37.664;2023-05-16T13:05:30;2.65;;;0.50;;
35693;SDS011;21812;55.536;37.664;2023-05-16T13:07:56;1.50;;;0.47;;
35693;SDS011;21812;55.536;37.664;2023-05-16T13:10:22;2.17;;;0.85;;
35693;SDS011;21812;55.536;37.664;2023-05-16T13:12:47;4.55;;;0.68;;
35693;SDS011;21812;55.536;37.664;2023-05-16T13:15:13;4.57;;;1.30;;
35693;SDS011;21812;55.536;37.664;2023-05-16T13:17:40;6.55;;;1.05;;
35693;SDS011;21812;55.536;37.664;2023-05-16T13:20:11;1.38;;;0.30;;
35693;SDS011;21812;55.536;37.664;2023-05-16T13:22:39;2.58;;;0.55;;
35693;SDS011;21812;55.536;37.664;2023-05-16T13:25:06;3.40;;;0.52;;
35693;SDS011;21812;55.536;37.664;2023-05-16T13:27:34;12.32;;;1.17;;
35693;SDS011;21812;55.536;37.664;2023-05-16T13:30:00;2.22;;;0.43;;
35693;SDS011;21812;55.536;37.664;2023-05-16T13:32:36;1.42;;;0.40;;
35693;SDS011;21812;55.536;37.664;2023-05-16T13:35:03;3.85;;;0.50;;
35693;SDS011;21812;55.536;37.664;2023-05-16T13:37:31;4.05;;;0.50;;
35693;SDS011;21812;55.536;37.664;2023-05-16T13:39:57;3.30;;;0.63;;
35693;SDS011;21812;55.536;37.664;2023-05-16T13:42:24;3.53;;;0.60;;
35693;SDS011;21812;55.536;37.664;2023-05-16T13:44:51;0.45;;;0.45;;
35693;SDS011;21812;55.536;37.664;2023-05-16T13:47:16;1.33;;;0.75;;
35693;SDS011;21812;55.536;37.664;2023-05-16T13:49:42;3.05;;;0.40;;
35693;SDS011;21812;55.536;37.664;2023-05-16T13:52:08;1.35;;;0.47;;
35693;SDS011;21812;55.536;37.664;2023-05-16T13:54:34;2.50;;;0.50;;
35693;SDS011;21812;55.536;37.664;2023-05-16T13:56:59;4.43;;;0.75;;
35693;SDS011;21812;55.536;37.664;2023-05-16T13:59:26;4.10;;;0.40;;
35693;SDS011;21812;55.536;37.664;2023-05-16T14:01:52;0.28;;;0.28;;
35693;SDS011;21812;55.536;37.664;2023-05-16T14:04:17;2.47;;;0.50;;
35693;SDS011;21812;55.536;37.664;2023-05-16T14:06:43;2.83;;;0.60;;
35693;SDS011;21812;55.536;37.664;2023-05-16T14:09:09;1.20;;;0.68;;
35693;SDS011;21812;55.536;37.664;2023-05-16T14:11:35;2.50;;;0.73;;
35693;SDS011;21812;55.536;37.664;2023-05-16T14:14:00;1.02;;;0.50;;
35693;SDS011;21812;55.536;37.664;2023-05-16T14:16:26;0.85;;;0.50;;
35693;SDS011;21812;55.536;37.664;2023-05-16T14:18:52;0.30;;;0.30;;
35693;SDS011;21812;55.536;37.664;2023-05-16T14:21:17;2.20;;;0.55;;
35693;SDS011;21812;55.536;37.664;2023-05-16T14:23:44;2.80;;;0.68;;
35693;SDS011;21812;55.536;37.664;2023-05-16T14:26:09;3.17;;;0.63;;
35693;SDS011;21812;55.536;37.664;2023-05-16T14:28:35;4.55;;;0.70;;
35693;SDS011;21812;55.536;37.664;2023-05-16T14:31:01;2.85;;;0.50;;
35693;SDS011;21812;55.536;37.664;2023-05-16T14:33:27;3.67;;;0.55;;
35693;SDS011;21812;55.536;37.664;2023-05-16T14:35:53;8.18;;;1.70;;
35693;SDS011;21812;55.536;37.664;2023-05-16T14:38:19;11.77;;;1.00;;
35693;SDS011;21812;55.536;37.664;2023-05-16T14:40:45;4.32;;;1.50;;
35693;SDS011;21812;55.536;37.664;2023-05-16T14:43:12;1.60;;;0.57;;
35693;SDS011;21812;55.536;37.664;2023-05-16T14:45:37;2.60;;;0.70;;
35693;SDS011;21812;55.536;37.664;2023-05-16T14:48:05;0.60;;;0.52;;
35693;SDS011;21812;55.536;37.664;2023-05-16T14:50:31;2.25;;;0.63;;
35693;SDS011;21812;55.536;37.664;2023-05-16T14:52:57;4.43;;;0.50;;